sensor_id;sensor_type;location;lat;lon;timestamp;P1;durP1;ratioP1;P2;durP2;ratioP2
71973;SDS011;59840;52.122;5.404;2023-04-15T00:00:58;3.22;;;2.92;;
71973;SDS011;59840;52.122;5.404;2023-04-15T00:03:25;6.87;;;3.57;;
71973;SDS011;59840;52.122;5.404;2023-04-15T00:05:52;4.88;;;3.20;;
71973;SDS011;59840;52.122;5.404;2023-04-15T00:08:19;4.95;;;3.28;;
71973;SDS011;59840;52.122;5.404;2023-04-15T00:10:46;8.98;;;3.40;;
71973;SDS011;59840;52.122;5.404;2023-04-15T00:13:13;6.88;;;3.40;;
71973;SDS011;59840;52.122;5.404;2023-04-15T00:15:40;4.50;;;2.77;;
71973;SDS011;59840;52.122;5.404;2023-04-15T00:18:07;7.32;;;3.00;;
71973;SDS011;59840;52.122;5.404;2023-04-15T00:20:34;4.35;;;3.20;;
71973;SDS011;59840;52.122;5.404;2023-04-15T00:23:01;5.55;;;3.40;;
71973;SDS011;59840;52.122;5.404;2023-04-15T00:25:29;5.30;;;3.33;;
71973;SDS011;59840;52.122;5.404;2023-04-15T00:27:56;8.87;;;4.27;;
71973;SDS011;59840;52.122;5.404;2023-04-15T00:30:23;6.20;;;3.60;;
71973;SDS011;59840;52.122;5.404;2023-04-15T00:32:50;6.05;;;3.28;;
71973;SDS011;59840;52.122;5.404;2023-04-15T00:35:17;5.40;;;3.47;;
71973;SDS011;59840;52.122;5.404;2023-04-15T00:37:44;4.68;;;3.42;;
71973;SDS011;59840;52.122;5.404;2023-04-15T00:40:11;5.07;;;3.17;;
71973;SDS011;59840;52.122;5.404;2023-04-15T00:42:39;6.15;;;3.53;;
71973;SDS011;59840;52.122;5.404;2023-04-15T00:45:06;4.60;;;3.08;;
71973;SDS011;59840;52.122;5.404;2023-04-15T00:47:34;3.85;;;3.05;;
71973;SDS011;59840;52.122;5.404;2023-04-15T00:50:03;3.72;;;3.30;;
71973;SDS011;59840;52.122;5.404;2023-04-15T00:52:30;5.00;;;3.30;;
71973;SDS011;59840;52.122;5.404;2023-04-15T00:54:57;7.55;;;3.20;;
71973;SDS011;59840;52.122;5.404;2023-04-15T00:57:24;3.40;;;3.10;;
71973;SDS011;59840;52.122;5.404;2023-04-15T00:59:52;4.15;;;3.10;;
71973;SDS011;59840;52.122;5.404;2023-04-15T01:02:21;9.02;;;3.17;;
71973;SDS011;59840;52.122;5.404;2023-04-15T01:04:48;6.53;;;3.57;;
71973;SDS011;59840;52.122;5.404;2023-04-15T01:07:15;4.93;;;3.10;;
71973;SDS011;59840;52.122;5.404;2023-04-15T01:09:42;4.47;;;3.17;;
71973;SDS011;59840;52.122;5.404;2023-04-15T01:12:09;5.88;;;3.45;;
71973;SDS011;59840;52.122;5.404;2023-04-15T01:14:38;4.22;;;3.00;;
71973;SDS011;59840;52.122;5.404;2023-04-15T01:17:04;7.00;;;2.93;;
71973;SDS011;59840;52.122;5.404;2023-04-15T01:19:31;3.38;;;2.85;;
71973;SDS011;59840;52.122;5.404;2023-04-15T01:21:58;4.55;;;3.03;;
71973;SDS011;59840;52.122;5.404;2023-04-15T01:24:25;5.80;;;3.15;;
71973;SDS011;59840;52.122;5.404;2023-04-15T01:26:53;4.32;;;2.92;;
71973;SDS011;59840;52.122;5.404;2023-04-15T01:29:20;6.37;;;3.40;;
71973;SDS011;59840;52.122;5.404;2023-04-15T01:31:50;6.53;;;3.17;;
71973;SDS011;59840;52.122;5.404;2023-04-15T01:34:18;6.13;;;3.38;;
71973;SDS011;59840;52.122;5.404;2023-04-15T01:36:44;5.78;;;3.33;;
71973;SDS011;59840;52.122;5.404;2023-04-15T01:39:11;5.53;;;3.20;;
71973;SDS011;59840;52.122;5.404;2023-04-15T01:41:38;4.50;;;3.47;;
71973;SDS011;59840;52.122;5.404;2023-04-15T01:44:06;4.20;;;3.30;;
71973;SDS011;59840;52.122;5.404;2023-04-15T01:46:33;5.10;;;3.25;;
71973;SDS011;59840;52.122;5.404;2023-04-15T01:49:01;4.53;;;3.38;;
71973;SDS011;59840;52.122;5.404;2023-04-15T01:51:28;5.35;;;3.10;;
71973;SDS011;59840;52.122;5.404;2023-04-15T01:53:54;4.03;;;3.13;;
71973;SDS011;59840;52.122;5.404;2023-04-15T01:56:24;3.67;;;3.28;;
71973;SDS011;59840;52.122;5.404;2023-04-15T01:58:50;6.50;;;3.70;;
71973;SDS011;59840;52.122;5.404;2023-04-15T02:01:17;4.57;;;3.28;;
71973;SDS011;59840;52.122;5.404;2023-04-15T02:03:47;3.92;;;3.15;;
71973;SDS011;59840;52.122;5.404;2023-04-15T02:06:14;5.90;;;3.13;;
71973;SDS011;59840;52.122;5.404;2023-04-15T02:08:41;5.15;;;3.83;;
71973;SDS011;59840;52.122;5.404;2023-04-15T02:11:07;3.92;;;3.35;;
71973;SDS011;59840;52.122;5.404;2023-04-15T02:13:34;3.38;;;3.03;;
71973;SDS011;59840;52.122;5.404;2023-04-15T02:16:01;8.05;;;3.50;;
71973;SDS011;59840;52.122;5.404;2023-04-15T02:18:28;5.47;;;3.50;;
71973;SDS011;59840;52.122;5.404;2023-04-15T02:20:55;4.05;;;3.58;;
71973;SDS011;59840;52.122;5.404;2023-04-15T02:23:23;4.40;;;3.40;;
71973;SDS011;59840;52.122;5.404;2023-04-15T02:25:50;4.68;;;3.47;;
71973;SDS011;59840;52.122;5.404;2023-04-15T02:28:19;3.75;;;3.25;;
71973;SDS011;59840;52.122;5.404;2023-04-15T02:30:46;4.63;;;3.30;;
71973;SDS011;59840;52.122;5.404;2023-04-15T02:33:15;5.28;;;3.50;;
71973;SDS011;59840;52.122;5.404;2023-04-15T02:35:42;5.80;;;3.40;;
71973;SDS011;59840;52.122;5.404;2023-04-15T02:38:10;4.40;;;3.38;;
71973;SDS011;59840;52.122;5.404;2023-04-15T02:40:37;5.60;;;3.08;;
71973;SDS011;59840;52.122;5.404;2023-04-15T02:43:03;3.57;;;3.27;;
71973;SDS011;59840;52.122;5.404;2023-04-15T02:45:32;5.72;;;3.60;;
71973;SDS011;59840;52.122;5.404;2023-04-15T02:47:59;3.83;;;3.40;;
71973;SDS011;59840;52.122;5.404;2023-04-15T02:50:29;5.35;;;3.33;;
71973;SDS011;59840;52.122;5.404;2023-04-15T02:52:56;5.10;;;3.38;;
71973;SDS011;59840;52.122;5.404;2023-04-15T02:55:23;4.27;;;2.90;;
71973;SDS011;59840;52.122;5.404;2023-04-15T02:57:49;5.05;;;2.50;;
71973;SDS011;59840;52.122;5.404;2023-04-15T03:00:16;5.28;;;3.30;;
71973;SDS011;59840;52.122;5.404;2023-04-15T03:02:43;2.90;;;2.58;;
71973;SDS011;59840;52.122;5.404;2023-04-15T03:05:12;4.43;;;3.03;;
71973;SDS011;59840;52.122;5.404;2023-04-15T03:07:39;3.10;;;2.40;;
71973;SDS011;59840;52.122;5.404;2023-04-15T03:10:06;3.60;;;2.85;;
71973;SDS011;59840;52.122;5.404;2023-04-15T03:12:33;3.47;;;2.70;;
71973;SDS011;59840;52.122;5.404;2023-04-15T03:15:00;3.53;;;2.88;;
71973;SDS011;59840;52.122;5.404;2023-04-15T03:17:27;3.88;;;3.25;;
71973;SDS011;59840;52.122;5.404;2023-04-15T03:19:53;5.77;;;2.97;;
71973;SDS011;59840;52.122;5.404;2023-04-15T03:22:20;3.83;;;3.42;;
71973;SDS011;59840;52.122;5.404;2023-04-15T03:24:47;7.55;;;3.10;;
71973;SDS011;59840;52.122;5.404;2023-04-15T03:27:13;4.60;;;3.58;;
71973;SDS011;59840;52.122;5.404;2023-04-15T03:29:40;4.97;;;3.50;;
71973;SDS011;59840;52.122;5.404;2023-04-15T03:32:06;7.93;;;3.50;;
71973;SDS011;59840;52.122;5.404;2023-04-15T03:34:33;5.05;;;3.58;;
71973;SDS011;59840;52.122;5.404;2023-04-15T03:36:59;4.10;;;3.20;;
71973;SDS011;59840;52.122;5.404;2023-04-15T03:39:26;5.35;;;3.00;;
71973;SDS011;59840;52.122;5.404;2023-04-15T03:41:52;5.00;;;3.30;;
71973;SDS011;59840;52.122;5.404;2023-04-15T03:44:19;4.60;;;3.60;;
71973;SDS011;59840;52.122;5.404;2023-04-15T03:46:45;4.50;;;3.20;;
71973;SDS011;59840;52.122;5.404;2023-04-15T03:49:12;3.78;;;3.05;;
71973;SDS011;59840;52.122;5.404;2023-04-15T03:51:39;5.15;;;2.72;;
71973;SDS011;59840;52.122;5.404;2023-04-15T03:54:05;2.83;;;2.42;;
71973;SDS011;59840;52.122;5.404;2023-04-15T03:56:32;4.90;;;3.20;;
71973;SDS011;59840;52.122;5.404;2023-04-15T03:58:58;4.55;;;2.83;;
71973;SDS011;59840;52.122;5.404;2023-04-15T04:01:25;4.70;;;2.70;;
71973;SDS011;59840;52.122;5.404;2023-04-15T04:03:52;3.08;;;2.65;;
71973;SDS011;59840;52.122;5.404;2023-04-15T04:06:19;5.10;;;3.28;;
71973;SDS011;59840;52.122;5.404;2023-04-15T04:08:46;4.87;;;3.07;;
71973;SDS011;59840;52.122;5.404;2023-04-15T04:11:12;3.28;;;2.70;;
71973;SDS011;59840;52.122;5.404;2023-04-15T04:13:39;3.97;;;2.88;;
71973;SDS011;59840;52.122;5.404;2023-04-15T04:16:05;4.70;;;2.30;;
71973;SDS011;59840;52.122;5.404;2023-04-15T04:18:32;4.22;;;2.63;;
71973;SDS011;59840;52.122;5.404;2023-04-15T04:20:59;3.93;;;3.00;;
71973;SDS011;59840;52.122;5.404;2023-04-15T04:23:25;5.28;;;3.17;;
71973;SDS011;59840;52.122;5.404;2023-04-15T04:25:52;4.40;;;2.85;;
71973;SDS011;59840;52.122;5.404;2023-04-15T04:28:18;4.40;;;3.22;;
71973;SDS011;59840;52.122;5.404;2023-04-15T04:30:45;5.35;;;3.25;;
71973;SDS011;59840;52.122;5.404;2023-04-15T04:33:11;3.00;;;2.67;;
71973;SDS011;59840;52.122;5.404;2023-04-15T04:35:38;7.60;;;3.17;;
71973;SDS011;59840;52.122;5.404;2023-04-15T04:38:04;5.82;;;2.97;;
71973;SDS011;59840;52.122;5.404;2023-04-15T04:40:31;3.92;;;3.22;;
71973;SDS011;59840;52.122;5.404;2023-04-15T04:42:58;5.88;;;3.20;;
71973;SDS011;59840;52.122;5.404;2023-04-15T04:45:25;4.77;;;3.13;;
71973;SDS011;59840;52.122;5.404;2023-04-15T04:47:52;3.55;;;2.88;;
71973;SDS011;59840;52.122;5.404;2023-04-15T04:50:19;4.00;;;2.70;;
71973;SDS011;59840;52.122;5.404;2023-04-15T04:52:46;5.80;;;2.95;;
71973;SDS011;59840;52.122;5.404;2023-04-15T04:55:12;3.55;;;2.72;;
71973;SDS011;59840;52.122;5.404;2023-04-15T04:57:39;4.23;;;2.87;;
71973;SDS011;59840;52.122;5.404;2023-04-15T05:00:07;4.72;;;3.28;;
71973;SDS011;59840;52.122;5.404;2023-04-15T05:02:34;3.90;;;2.97;;
71973;SDS011;59840;52.122;5.404;2023-04-15T05:05:01;3.42;;;2.45;;
71973;SDS011;59840;52.122;5.404;2023-04-15T05:07:28;4.13;;;2.67;;
71973;SDS011;59840;52.122;5.404;2023-04-15T05:09:54;4.93;;;2.70;;
71973;SDS011;59840;52.122;5.404;2023-04-15T05:12:22;5.65;;;3.17;;
71973;SDS011;59840;52.122;5.404;2023-04-15T05:14:49;5.40;;;2.42;;
71973;SDS011;59840;52.122;5.404;2023-04-15T05:17:15;5.57;;;3.30;;
71973;SDS011;59840;52.122;5.404;2023-04-15T05:19:42;4.82;;;2.65;;
71973;SDS011;59840;52.122;5.404;2023-04-15T05:22:08;4.07;;;2.97;;
71973;SDS011;59840;52.122;5.404;2023-04-15T05:24:35;3.83;;;2.75;;
71973;SDS011;59840;52.122;5.404;2023-04-15T05:27:01;4.03;;;3.10;;
71973;SDS011;59840;52.122;5.404;2023-04-15T05:29:28;5.88;;;3.22;;
71973;SDS011;59840;52.122;5.404;2023-04-15T05:31:55;5.82;;;3.40;;
71973;SDS011;59840;52.122;5.404;2023-04-15T05:34:22;7.47;;;4.20;;
71973;SDS011;59840;52.122;5.404;2023-04-15T05:36:48;5.65;;;3.90;;
71973;SDS011;59840;52.122;5.404;2023-04-15T05:39:15;4.65;;;3.33;;
71973;SDS011;59840;52.122;5.404;2023-04-15T05:41:42;5.28;;;3.38;;
71973;SDS011;59840;52.122;5.404;2023-04-15T05:44:08;6.32;;;3.55;;
71973;SDS011;59840;52.122;5.404;2023-04-15T05:46:35;4.63;;;3.20;;
71973;SDS011;59840;52.122;5.404;2023-04-15T05:49:02;5.80;;;3.38;;
71973;SDS011;59840;52.122;5.404;2023-04-15T05:51:29;5.85;;;3.88;;
71973;SDS011;59840;52.122;5.404;2023-04-15T05:53:56;4.90;;;3.58;;
71973;SDS011;59840;52.122;5.404;2023-04-15T05:56:22;5.22;;;3.85;;
71973;SDS011;59840;52.122;5.404;2023-04-15T05:58:50;5.23;;;3.63;;
71973;SDS011;59840;52.122;5.404;2023-04-15T06:01:18;4.65;;;3.35;;
71973;SDS011;59840;52.122;5.404;2023-04-15T06:03:45;5.07;;;3.80;;
71973;SDS011;59840;52.122;5.404;2023-04-15T06:06:12;7.10;;;3.92;;
71973;SDS011;59840;52.122;5.404;2023-04-15T06:08:39;5.63;;;4.20;;
71973;SDS011;59840;52.122;5.404;2023-04-15T06:11:06;4.37;;;3.40;;
71973;SDS011;59840;52.122;5.404;2023-04-15T06:13:33;8.45;;;4.13;;
71973;SDS011;59840;52.122;5.404;2023-04-15T06:16:00;5.15;;;4.07;;
71973;SDS011;59840;52.122;5.404;2023-04-15T06:18:26;6.68;;;4.30;;
71973;SDS011;59840;52.122;5.404;2023-04-15T06:20:53;7.97;;;4.55;;
71973;SDS011;59840;52.122;5.404;2023-04-15T06:23:19;6.87;;;4.57;;
71973;SDS011;59840;52.122;5.404;2023-04-15T06:25:46;8.95;;;4.05;;
71973;SDS011;59840;52.122;5.404;2023-04-15T06:28:13;6.13;;;4.30;;
71973;SDS011;59840;52.122;5.404;2023-04-15T06:30:39;7.50;;;4.38;;
71973;SDS011;59840;52.122;5.404;2023-04-15T06:33:06;10.18;;;5.93;;
71973;SDS011;59840;52.122;5.404;2023-04-15T06:35:32;7.27;;;5.33;;
71973;SDS011;59840;52.122;5.404;2023-04-15T06:37:59;9.55;;;5.78;;
71973;SDS011;59840;52.122;5.404;2023-04-15T06:40:25;11.13;;;5.55;;
71973;SDS011;59840;52.122;5.404;2023-04-15T06:42:53;9.68;;;5.72;;
71973;SDS011;59840;52.122;5.404;2023-04-15T06:45:20;7.32;;;5.45;;
71973;SDS011;59840;52.122;5.404;2023-04-15T06:47:47;5.83;;;4.87;;
71973;SDS011;59840;52.122;5.404;2023-04-15T06:50:13;7.60;;;4.70;;
71973;SDS011;59840;52.122;5.404;2023-04-15T06:52:40;5.60;;;4.95;;
71973;SDS011;59840;52.122;5.404;2023-04-15T06:55:06;8.77;;;5.18;;
71973;SDS011;59840;52.122;5.404;2023-04-15T06:57:33;6.63;;;4.72;;
71973;SDS011;59840;52.122;5.404;2023-04-15T07:00:00;5.43;;;4.37;;
71973;SDS011;59840;52.122;5.404;2023-04-15T07:02:27;5.43;;;4.50;;
71973;SDS011;59840;52.122;5.404;2023-04-15T07:04:54;6.50;;;4.80;;
71973;SDS011;59840;52.122;5.404;2023-04-15T07:07:22;7.45;;;4.97;;
71973;SDS011;59840;52.122;5.404;2023-04-15T07:09:48;6.30;;;4.45;;
71973;SDS011;59840;52.122;5.404;2023-04-15T07:12:15;6.00;;;4.97;;
71973;SDS011;59840;52.122;5.404;2023-04-15T07:14:41;6.30;;;5.03;;
71973;SDS011;59840;52.122;5.404;2023-04-15T07:17:08;7.20;;;5.40;;
71973;SDS011;59840;52.122;5.404;2023-04-15T07:19:35;7.00;;;5.07;;
71973;SDS011;59840;52.122;5.404;2023-04-15T07:22:01;5.40;;;4.90;;
71973;SDS011;59840;52.122;5.404;2023-04-15T07:24:28;7.00;;;5.20;;
71973;SDS011;59840;52.122;5.404;2023-04-15T07:26:55;7.80;;;5.50;;
71973;SDS011;59840;52.122;5.404;2023-04-15T07:29:25;6.40;;;4.88;;
71973;SDS011;59840;52.122;5.404;2023-04-15T07:31:52;7.93;;;5.18;;
71973;SDS011;59840;52.122;5.404;2023-04-15T07:34:18;9.45;;;5.25;;
71973;SDS011;59840;52.122;5.404;2023-04-15T07:36:46;5.90;;;5.23;;
71973;SDS011;59840;52.122;5.404;2023-04-15T07:39:15;10.10;;;6.05;;
71973;SDS011;59840;52.122;5.404;2023-04-15T07:41:43;8.70;;;5.07;;
71973;SDS011;59840;52.122;5.404;2023-04-15T07:44:10;9.95;;;5.78;;
71973;SDS011;59840;52.122;5.404;2023-04-15T07:46:36;8.60;;;5.07;;
71973;SDS011;59840;52.122;5.404;2023-04-15T07:49:03;6.30;;;5.13;;
71973;SDS011;59840;52.122;5.404;2023-04-15T07:51:30;6.95;;;4.60;;
71973;SDS011;59840;52.122;5.404;2023-04-15T07:53:57;7.72;;;4.95;;
71973;SDS011;59840;52.122;5.404;2023-04-15T07:56:24;4.70;;;4.20;;
71973;SDS011;59840;52.122;5.404;2023-04-15T07:58:51;3.97;;;3.58;;
71973;SDS011;59840;52.122;5.404;2023-04-15T08:01:18;5.60;;;3.90;;
71973;SDS011;59840;52.122;5.404;2023-04-15T08:03:45;4.97;;;3.55;;
71973;SDS011;59840;52.122;5.404;2023-04-15T08:06:12;4.72;;;3.60;;
71973;SDS011;59840;52.122;5.404;2023-04-15T08:08:39;4.65;;;3.28;;
71973;SDS011;59840;52.122;5.404;2023-04-15T08:11:05;3.42;;;2.95;;
71973;SDS011;59840;52.122;5.404;2023-04-15T08:13:32;4.90;;;2.90;;
71973;SDS011;59840;52.122;5.404;2023-04-15T08:18:46;4.93;;;3.30;;
71973;SDS011;59840;52.122;5.404;2023-04-15T08:21:17;4.65;;;3.00;;
71973;SDS011;59840;52.122;5.404;2023-04-15T08:23:45;3.28;;;2.53;;
71973;SDS011;59840;52.122;5.404;2023-04-15T08:26:13;2.60;;;2.33;;
71973;SDS011;59840;52.122;5.404;2023-04-15T08:28:40;4.72;;;2.55;;
71973;SDS011;59840;52.122;5.404;2023-04-15T08:31:08;4.15;;;3.00;;
71973;SDS011;59840;52.122;5.404;2023-04-15T08:33:35;3.10;;;2.80;;
71973;SDS011;59840;52.122;5.404;2023-04-15T08:36:02;2.83;;;2.30;;
71973;SDS011;59840;52.122;5.404;2023-04-15T08:38:28;4.30;;;2.70;;
71973;SDS011;59840;52.122;5.404;2023-04-15T08:40:55;3.30;;;2.55;;
71973;SDS011;59840;52.122;5.404;2023-04-15T08:43:28;3.85;;;2.35;;
71973;SDS011;59840;52.122;5.404;2023-04-15T08:46:00;4.28;;;2.20;;
71973;SDS011;59840;52.122;5.404;2023-04-15T08:48:27;4.05;;;2.30;;
71973;SDS011;59840;52.122;5.404;2023-04-15T08:50:55;4.50;;;2.70;;
71973;SDS011;59840;52.122;5.404;2023-04-15T08:53:22;2.92;;;2.13;;
71973;SDS011;59840;52.122;5.404;2023-04-15T08:55:50;3.38;;;2.45;;
71973;SDS011;59840;52.122;5.404;2023-04-15T08:58:18;3.25;;;2.50;;
71973;SDS011;59840;52.122;5.404;2023-04-15T09:00:45;3.08;;;2.28;;
71973;SDS011;59840;52.122;5.404;2023-04-15T09:03:12;4.27;;;2.73;;
71973;SDS011;59840;52.122;5.404;2023-04-15T09:05:39;3.85;;;2.55;;
71973;SDS011;59840;52.122;5.404;2023-04-15T09:08:05;2.83;;;2.28;;
71973;SDS011;59840;52.122;5.404;2023-04-15T09:10:34;3.38;;;2.67;;
71973;SDS011;59840;52.122;5.404;2023-04-15T09:13:01;3.88;;;2.38;;
71973;SDS011;59840;52.122;5.404;2023-04-15T09:15:27;7.67;;;2.10;;
71973;SDS011;59840;52.122;5.404;2023-04-15T09:17:55;5.28;;;2.05;;
71973;SDS011;59840;52.122;5.404;2023-04-15T09:20:22;2.58;;;2.03;;
71973;SDS011;59840;52.122;5.404;2023-04-15T09:22:49;3.10;;;1.80;;
71973;SDS011;59840;52.122;5.404;2023-04-15T09:27:48;2.40;;;1.80;;
71973;SDS011;59840;52.122;5.404;2023-04-15T09:30:15;4.65;;;1.88;;
71973;SDS011;59840;52.122;5.404;2023-04-15T09:32:52;2.30;;;1.85;;
71973;SDS011;59840;52.122;5.404;2023-04-15T09:35:26;3.80;;;2.17;;
71973;SDS011;59840;52.122;5.404;2023-04-15T09:38:00;3.30;;;2.25;;
71973;SDS011;59840;52.122;5.404;2023-04-15T09:43:08;3.42;;;1.67;;
71973;SDS011;59840;52.122;5.404;2023-04-15T09:45:45;2.35;;;2.15;;
71973;SDS011;59840;52.122;5.404;2023-04-15T09:48:15;2.70;;;1.95;;
71973;SDS011;59840;52.122;5.404;2023-04-15T09:50:42;3.10;;;2.20;;
71973;SDS011;59840;52.122;5.404;2023-04-15T09:53:10;5.57;;;2.70;;
71973;SDS011;59840;52.122;5.404;2023-04-15T09:55:43;3.35;;;1.92;;
71973;SDS011;59840;52.122;5.404;2023-04-15T09:58:18;1.67;;;1.35;;
71973;SDS011;59840;52.122;5.404;2023-04-15T10:00:46;2.10;;;1.30;;
71973;SDS011;59840;52.122;5.404;2023-04-15T10:03:18;1.63;;;1.30;;
71973;SDS011;59840;52.122;5.404;2023-04-15T10:05:47;2.83;;;1.90;;
71973;SDS011;59840;52.122;5.404;2023-04-15T10:08:19;2.95;;;2.05;;
71973;SDS011;59840;52.122;5.404;2023-04-15T10:10:47;3.83;;;2.65;;
71973;SDS011;59840;52.122;5.404;2023-04-15T10:13:16;4.03;;;2.50;;
71973;SDS011;59840;52.122;5.404;2023-04-15T10:15:44;3.35;;;2.03;;
71973;SDS011;59840;52.122;5.404;2023-04-15T10:18:25;2.20;;;1.30;;
71973;SDS011;59840;52.122;5.404;2023-04-15T10:20:53;3.45;;;1.30;;
71973;SDS011;59840;52.122;5.404;2023-04-15T10:23:21;2.53;;;1.50;;
71973;SDS011;59840;52.122;5.404;2023-04-15T10:25:50;1.77;;;1.27;;
71973;SDS011;59840;52.122;5.404;2023-04-15T10:28:19;2.05;;;1.50;;
71973;SDS011;59840;52.122;5.404;2023-04-15T10:30:48;2.37;;;1.50;;
71973;SDS011;59840;52.122;5.404;2023-04-15T10:33:19;2.28;;;1.60;;
71973;SDS011;59840;52.122;5.404;2023-04-15T10:35:48;2.10;;;1.80;;
71973;SDS011;59840;52.122;5.404;2023-04-15T10:38:50;2.53;;;1.75;;
71973;SDS011;59840;52.122;5.404;2023-04-15T10:41:14;2.60;;;1.80;;
71973;SDS011;59840;52.122;5.404;2023-04-15T10:43:53;2.23;;;1.70;;
71973;SDS011;59840;52.122;5.404;2023-04-15T10:46:45;1.77;;;1.35;;
71973;SDS011;59840;52.122;5.404;2023-04-15T10:52:02;1.70;;;1.45;;
71973;SDS011;59840;52.122;5.404;2023-04-15T10:57:06;2.30;;;1.60;;
71973;SDS011;59840;52.122;5.404;2023-04-15T10:59:38;2.65;;;1.60;;
71973;SDS011;59840;52.122;5.404;2023-04-15T11:05:14;1.90;;;1.20;;
71973;SDS011;59840;52.122;5.404;2023-04-15T11:10:49;1.47;;;1.23;;
71973;SDS011;59840;52.122;5.404;2023-04-15T11:15:38;2.42;;;1.13;;
71973;SDS011;59840;52.122;5.404;2023-04-15T11:20:40;1.42;;;0.82;;
71973;SDS011;59840;52.122;5.404;2023-04-15T11:23:23;1.93;;;0.90;;
71973;SDS011;59840;52.122;5.404;2023-04-15T11:26:04;2.92;;;1.08;;
71973;SDS011;59840;52.122;5.404;2023-04-15T11:28:35;2.00;;;1.10;;
71973;SDS011;59840;52.122;5.404;2023-04-15T11:33:59;2.85;;;1.40;;
71973;SDS011;59840;52.122;5.404;2023-04-15T11:36:28;1.93;;;1.37;;
71973;SDS011;59840;52.122;5.404;2023-04-15T11:38:57;2.95;;;1.30;;
71973;SDS011;59840;52.122;5.404;2023-04-15T11:41:25;1.38;;;1.17;;
71973;SDS011;59840;52.122;5.404;2023-04-15T11:43:52;2.40;;;1.50;;
71973;SDS011;59840;52.122;5.404;2023-04-15T11:46:38;2.40;;;1.25;;
71973;SDS011;59840;52.122;5.404;2023-04-15T11:49:05;2.63;;;1.30;;
71973;SDS011;59840;52.122;5.404;2023-04-15T11:51:32;2.55;;;1.30;;
71973;SDS011;59840;52.122;5.404;2023-04-15T11:53:59;2.13;;;1.13;;
71973;SDS011;59840;52.122;5.404;2023-04-15T11:56:26;3.17;;;1.40;;
71973;SDS011;59840;52.122;5.404;2023-04-15T11:58:54;1.77;;;1.27;;
71973;SDS011;59840;52.122;5.404;2023-04-15T12:01:34;1.80;;;1.10;;
71973;SDS011;59840;52.122;5.404;2023-04-15T12:04:10;3.22;;;1.60;;
71973;SDS011;59840;52.122;5.404;2023-04-15T12:06:51;1.60;;;1.33;;
71973;SDS011;59840;52.122;5.404;2023-04-15T12:09:17;2.17;;;1.00;;
71973;SDS011;59840;52.122;5.404;2023-04-15T12:11:55;1.00;;;0.90;;
71973;SDS011;59840;52.122;5.404;2023-04-15T12:14:27;2.30;;;0.90;;
71973;SDS011;59840;52.122;5.404;2023-04-15T12:17:01;2.50;;;1.00;;
71973;SDS011;59840;52.122;5.404;2023-04-15T12:19:33;4.18;;;0.90;;
71973;SDS011;59840;52.122;5.404;2023-04-15T12:22:02;1.45;;;0.70;;
71973;SDS011;59840;52.122;5.404;2023-04-15T12:24:36;1.50;;;0.80;;
71973;SDS011;59840;52.122;5.404;2023-04-15T12:27:05;1.73;;;0.70;;
71973;SDS011;59840;52.122;5.404;2023-04-15T12:29:33;1.33;;;0.80;;
71973;SDS011;59840;52.122;5.404;2023-04-15T12:32:07;1.73;;;0.82;;
71973;SDS011;59840;52.122;5.404;2023-04-15T12:34:38;1.33;;;0.93;;
71973;SDS011;59840;52.122;5.404;2023-04-15T12:37:10;0.95;;;0.80;;
71973;SDS011;59840;52.122;5.404;2023-04-15T12:39:42;2.10;;;0.93;;
71973;SDS011;59840;52.122;5.404;2023-04-15T12:42:10;2.10;;;1.00;;
71973;SDS011;59840;52.122;5.404;2023-04-15T12:44:37;1.33;;;0.85;;
71973;SDS011;59840;52.122;5.404;2023-04-15T12:47:08;1.85;;;0.80;;
71973;SDS011;59840;52.122;5.404;2023-04-15T12:49:38;1.42;;;0.90;;
71973;SDS011;59840;52.122;5.404;2023-04-15T12:52:05;3.90;;;0.90;;
71973;SDS011;59840;52.122;5.404;2023-04-15T12:54:32;2.55;;;1.17;;
71973;SDS011;59840;52.122;5.404;2023-04-15T12:56:59;1.45;;;0.57;;
71973;SDS011;59840;52.122;5.404;2023-04-15T12:59:26;1.05;;;0.77;;
71973;SDS011;59840;52.122;5.404;2023-04-15T13:01:54;2.72;;;0.60;;
71973;SDS011;59840;52.122;5.404;2023-04-15T13:04:23;0.90;;;0.50;;
71973;SDS011;59840;52.122;5.404;2023-04-15T13:06:50;1.13;;;0.65;;
71973;SDS011;59840;52.122;5.404;2023-04-15T13:09:16;1.60;;;0.55;;
71973;SDS011;59840;52.122;5.404;2023-04-15T13:11:43;1.67;;;0.80;;
71973;SDS011;59840;52.122;5.404;2023-04-15T13:14:12;1.67;;;0.70;;
71973;SDS011;59840;52.122;5.404;2023-04-15T13:16:40;1.63;;;0.60;;
71973;SDS011;59840;52.122;5.404;2023-04-15T13:19:09;1.70;;;0.65;;
71973;SDS011;59840;52.122;5.404;2023-04-15T13:21:38;2.28;;;0.80;;
71973;SDS011;59840;52.122;5.404;2023-04-15T13:24:05;1.92;;;0.70;;
71973;SDS011;59840;52.122;5.404;2023-04-15T13:26:33;1.77;;;0.93;;
71973;SDS011;59840;52.122;5.404;2023-04-15T13:29:00;2.03;;;0.70;;
71973;SDS011;59840;52.122;5.404;2023-04-15T13:31:27;1.17;;;0.63;;
71973;SDS011;59840;52.122;5.404;2023-04-15T13:33:55;2.42;;;0.50;;
71973;SDS011;59840;52.122;5.404;2023-04-15T13:36:22;0.95;;;0.50;;
71973;SDS011;59840;52.122;5.404;2023-04-15T13:38:49;1.83;;;0.82;;
71973;SDS011;59840;52.122;5.404;2023-04-15T13:41:16;1.70;;;0.83;;
71973;SDS011;59840;52.122;5.404;2023-04-15T13:43:43;1.08;;;0.60;;
71973;SDS011;59840;52.122;5.404;2023-04-15T13:46:10;0.98;;;0.50;;
71973;SDS011;59840;52.122;5.404;2023-04-15T13:48:36;2.10;;;0.60;;
71973;SDS011;59840;52.122;5.404;2023-04-15T13:51:03;2.15;;;0.60;;
71973;SDS011;59840;52.122;5.404;2023-04-15T13:53:30;1.60;;;0.43;;
71973;SDS011;59840;52.122;5.404;2023-04-15T13:56:05;1.65;;;0.50;;
71973;SDS011;59840;52.122;5.404;2023-04-15T13:58:32;1.55;;;0.38;;
71973;SDS011;59840;52.122;5.404;2023-04-15T14:00:59;2.35;;;0.40;;
71973;SDS011;59840;52.122;5.404;2023-04-15T14:03:47;1.20;;;0.30;;
71973;SDS011;59840;52.122;5.404;2023-04-15T14:06:14;1.80;;;0.60;;
71973;SDS011;59840;52.122;5.404;2023-04-15T14:08:40;0.95;;;0.30;;
71973;SDS011;59840;52.122;5.404;2023-04-15T14:11:07;1.33;;;0.45;;
71973;SDS011;59840;52.122;5.404;2023-04-15T14:13:34;1.10;;;0.40;;
71973;SDS011;59840;52.122;5.404;2023-04-15T14:16:01;1.10;;;0.40;;
71973;SDS011;59840;52.122;5.404;2023-04-15T14:18:28;3.47;;;0.50;;
71973;SDS011;59840;52.122;5.404;2023-04-15T14:20:55;2.63;;;0.50;;
71973;SDS011;59840;52.122;5.404;2023-04-15T14:23:22;2.60;;;0.40;;
71973;SDS011;59840;52.122;5.404;2023-04-15T14:25:49;1.75;;;0.35;;
71973;SDS011;59840;52.122;5.404;2023-04-15T14:28:16;4.53;;;0.80;;
71973;SDS011;59840;52.122;5.404;2023-04-15T14:30:42;4.77;;;0.97;;
71973;SDS011;59840;52.122;5.404;2023-04-15T14:33:09;2.42;;;0.77;;
71973;SDS011;59840;52.122;5.404;2023-04-15T14:35:36;2.42;;;0.43;;
71973;SDS011;59840;52.122;5.404;2023-04-15T14:38:03;3.50;;;0.57;;
71973;SDS011;59840;52.122;5.404;2023-04-15T14:40:32;2.05;;;0.60;;
71973;SDS011;59840;52.122;5.404;2023-04-15T14:42:58;4.00;;;0.60;;
71973;SDS011;59840;52.122;5.404;2023-04-15T14:45:25;1.10;;;0.50;;
71973;SDS011;59840;52.122;5.404;2023-04-15T14:47:52;1.30;;;0.38;;
71973;SDS011;59840;52.122;5.404;2023-04-15T14:50:18;2.78;;;0.57;;
71973;SDS011;59840;52.122;5.404;2023-04-15T14:52:47;1.58;;;0.50;;
71973;SDS011;59840;52.122;5.404;2023-04-15T14:55:14;2.80;;;0.40;;
71973;SDS011;59840;52.122;5.404;2023-04-15T14:57:41;1.02;;;0.40;;
71973;SDS011;59840;52.122;5.404;2023-04-15T15:00:09;1.95;;;0.82;;
71973;SDS011;59840;52.122;5.404;2023-04-15T15:02:39;2.92;;;0.35;;
71973;SDS011;59840;52.122;5.404;2023-04-15T15:05:08;3.05;;;0.40;;
71973;SDS011;59840;52.122;5.404;2023-04-15T15:07:36;2.30;;;0.33;;
71973;SDS011;59840;52.122;5.404;2023-04-15T15:10:04;3.13;;;0.52;;
71973;SDS011;59840;52.122;5.404;2023-04-15T15:12:32;2.75;;;0.40;;
71973;SDS011;59840;52.122;5.404;2023-04-15T15:14:59;1.73;;;0.50;;
71973;SDS011;59840;52.122;5.404;2023-04-15T15:17:30;1.98;;;0.20;;
71973;SDS011;59840;52.122;5.404;2023-04-15T15:19:56;1.50;;;0.33;;